Time;durP1;ratioP1;P1;durP2;ratioP2;P2;SDS_P1;SDS_P2;PMS_P1;PMS_P2;Temp;Humidity;BMP_temperature;BMP_pressure;BME280_temperature;BME280_humidity;BME280_pressure;Samples;Min_cycle;Max_cycle;Signal;HPM_P1;HPM_P2
2022/09/27 00:01:22;;;;;;;13.73;3.30;;;;;;;;;;5074945;28;20294;-83
2022/09/27 00:03:48;;;;;;;9.87;2.80;;;;;;;;;;5074961;28;20186;-84
2022/09/27 00:06:23;;;;;;;10.27;2.70;;;;;;;;;;5059074;28;20171;-84
2022/09/27 00:08:49;;;;;;;12.63;2.90;;;;;;;;;;5074071;28;20267;-84
2022/09/27 00:11:26;;;;;;;8.40;2.70;;;;;;;;;;5075584;28;20186;-84
2022/09/27 00:13:54;;;;;;;7.33;2.60;;;;;;;;;;5074232;28;20187;-84
2022/09/27 00:16:20;;;;;;;8.80;2.90;;;;;;;;;;5075824;28;20193;-84
2022/09/27 00:18:46;;;;;;;9.13;2.93;;;;;;;;;;5057907;28;20186;-84
2022/09/27 00:21:13;;;;;;;8.80;2.37;;;;;;;;;;5057353;28;20207;-84
2022/09/27 00:23:39;;;;;;;7.67;2.77;;;;;;;;;;5071796;28;20179;-84
2022/09/27 00:26:06;;;;;;;11.47;2.60;;;;;;;;;;5078793;28;20191;-84
2022/09/27 00:28:32;;;;;;;10.20;2.50;;;;;;;;;;5074352;28;20182;-85
2022/09/27 00:30:59;;;;;;;7.60;2.60;;;;;;;;;;5073537;28;20179;-85
2022/09/27 00:33:25;;;;;;;9.00;2.20;;;;;;;;;;5074208;28;20186;-84
2022/09/27 00:35:51;;;;;;;6.63;2.17;;;;;;;;;;5074451;28;20186;-85
2022/09/27 00:38:17;;;;;;;9.03;2.30;;;;;;;;;;5057470;28;20179;-84
2022/09/27 00:40:44;;;;;;;7.50;2.00;;;;;;;;;;5073851;28;20206;-84
2022/09/27 00:43:33;;;;;;;5.33;1.80;;;;;;;;;;5073820;28;20179;-84
2022/09/27 00:46:01;;;;;;;5.20;2.00;;;;;;;;;;5073168;28;20176;-84
2022/09/27 00:48:28;;;;;;;5.60;1.97;;;;;;;;;;5074915;28;20167;-84
2022/09/27 00:50:57;;;;;;;9.13;2.00;;;;;;;;;;5073757;28;20182;-85
2022/09/27 00:53:32;;;;;;;5.17;1.47;;;;;;;;;;5078529;28;20273;-84
2022/09/27 00:56:00;;;;;;;6.50;1.97;;;;;;;;;;5075583;28;20175;-85
2022/09/27 00:58:49;;;;;;;11.00;2.10;;;;;;;;;;5072904;28;20187;-85
2022/09/27 01:01:16;;;;;;;9.53;1.73;;;;;;;;;;5057500;28;20217;-85
2022/09/27 01:03:49;;;;;;;4.80;1.40;;;;;;;;;;5073858;28;20176;-84
2022/09/27 01:06:16;;;;;;;4.27;1.70;;;;;;;;;;5073662;28;20175;-84
2022/09/27 01:08:42;;;;;;;7.50;1.70;;;;;;;;;;5070720;28;20310;-85
2022/09/27 01:11:11;;;;;;;6.77;1.90;;;;;;;;;;5057936;28;20281;-85
2022/09/27 01:13:48;;;;;;;6.10;1.80;;;;;;;;;;5074501;28;20234;-85
2022/09/27 01:16:29;;;;;;;5.03;1.57;;;;;;;;;;5073822;28;20183;-85
2022/09/27 01:18:58;;;;;;;8.37;1.87;;;;;;;;;;5078160;28;20266;-85
2022/09/27 01:21:43;;;;;;;9.00;1.77;;;;;;;;;;5073489;28;20198;-85
2022/09/27 01:24:12;;;;;;;6.87;1.60;;;;;;;;;;5053839;28;20187;-85
2022/09/27 01:26:47;;;;;;;6.00;1.80;;;;;;;;;;5070952;28;20296;-85
2022/09/27 01:29:32;;;;;;;8.90;2.00;;;;;;;;;;5074442;28;20202;-84
2022/09/27 01:31:58;;;;;;;5.60;1.80;;;;;;;;;;5071623;28;20318;-85
2022/09/27 01:34:37;;;;;;;6.03;1.70;;;;;;;;;;5073070;28;20523;-83
2022/09/27 01:37:20;;;;;;;5.27;1.67;;;;;;;;;;5072006;28;20213;-83
2022/09/27 01:39:59;;;;;;;5.73;1.63;;;;;;;;;;5071453;28;20262;-84
2022/09/27 01:42:25;;;;;;;4.73;1.67;;;;;;;;;;5071598;28;20203;-83
2022/09/27 01:44:56;;;;;;;5.83;1.60;;;;;;;;;;5073047;28;20179;-84
2022/09/27 01:47:24;;;;;;;5.33;1.80;;;;;;;;;;5071207;28;20183;-83
2022/09/27 01:49:53;;;;;;;5.30;1.50;;;;;;;;;;5072598;28;20175;-83
2022/09/27 01:52:21;;;;;;;6.13;1.43;;;;;;;;;;5072753;28;20324;-83
2022/09/27 01:54:51;;;;;;;6.50;1.63;;;;;;;;;;5072555;28;20167;-83
2022/09/27 01:57:21;;;;;;;5.50;1.60;;;;;;;;;;5071880;28;20273;-83
2022/09/27 01:59:54;;;;;;;7.83;1.47;;;;;;;;;;5072694;28;20186;-84
2022/09/27 02:02:23;;;;;;;7.50;1.67;;;;;;;;;;5069962;28;20206;-84
2022/09/27 02:04:52;;;;;;;4.80;1.60;;;;;;;;;;5072553;28;20190;-84
2022/09/27 02:07:23;;;;;;;5.17;1.70;;;;;;;;;;5070592;28;20273;-83
2022/09/27 02:09:52;;;;;;;5.97;1.70;;;;;;;;;;5072431;28;20226;-82
2022/09/27 02:12:21;;;;;;;5.13;1.50;;;;;;;;;;5070187;28;20328;-82
2022/09/27 02:14:51;;;;;;;5.03;1.60;;;;;;;;;;5073916;28;20175;-83
2022/09/27 02:17:22;;;;;;;5.67;1.40;;;;;;;;;;5072486;28;20179;-84
2022/09/27 02:20:12;;;;;;;3.87;1.60;;;;;;;;;;5071347;28;20248;-85
2022/09/27 02:22:41;;;;;;;5.37;1.30;;;;;;;;;;5063535;28;20229;-85
2022/09/27 02:25:15;;;;;;;5.67;1.63;;;;;;;;;;5072670;28;20176;-85
2022/09/27 02:27:54;;;;;;;5.73;1.47;;;;;;;;;;5054001;28;20195;-84
2022/09/27 02:30:20;;;;;;;8.50;1.50;;;;;;;;;;5053993;28;20188;-84
2022/09/27 02:32:46;;;;;;;5.53;1.40;;;;;;;;;;5072517;28;20216;-85
2022/09/27 02:35:19;;;;;;;4.53;1.23;;;;;;;;;;5059499;28;20190;-84
2022/09/27 02:37:45;;;;;;;7.03;1.70;;;;;;;;;;5076571;28;20179;-84
2022/09/27 02:40:15;;;;;;;6.13;1.50;;;;;;;;;;5059243;28;20279;-82
2022/09/27 02:42:42;;;;;;;7.37;1.33;;;;;;;;;;5077634;28;20171;-82
2022/09/27 02:45:09;;;;;;;10.20;1.77;;;;;;;;;;5076557;28;20199;-82
2022/09/27 02:47:55;;;;;;;9.77;1.73;;;;;;;;;;5059656;28;20179;-82
2022/09/27 02:50:32;;;;;;;9.10;1.40;;;;;;;;;;5077960;28;20172;-82
2022/09/27 02:52:58;;;;;;;6.03;1.30;;;;;;;;;;5073686;28;20171;-82
2022/09/27 02:55:43;;;;;;;6.87;1.37;;;;;;;;;;5077195;28;20172;-84
2022/09/27 02:58:15;;;;;;;4.27;1.40;;;;;;;;;;5075565;28;20175;-84
2022/09/27 03:00:47;;;;;;;6.13;1.40;;;;;;;;;;5071504;28;20201;-84
2022/09/27 03:03:14;;;;;;;5.67;1.20;;;;;;;;;;5077021;28;20241;-84
2022/09/27 03:05:45;;;;;;;5.47;1.53;;;;;;;;;;5076541;28;20171;-84
2022/09/27 03:08:12;;;;;;;6.93;1.33;;;;;;;;;;5076290;28;20219;-85
2022/09/27 03:10:38;;;;;;;9.80;1.30;;;;;;;;;;5079701;28;20239;-84
2022/09/27 03:13:04;;;;;;;6.30;1.50;;;;;;;;;;5079489;28;20179;-84
2022/09/27 03:15:30;;;;;;;4.47;1.50;;;;;;;;;;5063106;28;20192;-84
2022/09/27 03:17:57;;;;;;;5.63;1.47;;;;;;;;;;5079199;28;20187;-84
2022/09/27 03:20:23;;;;;;;5.03;1.47;;;;;;;;;;5080298;28;20191;-84
2022/09/27 03:22:49;;;;;;;10.30;1.50;;;;;;;;;;5066528;28;20178;-83
2022/09/27 03:25:15;;;;;;;6.87;1.40;;;;;;;;;;5095479;28;20178;-84
2022/09/27 03:27:41;;;;;;;4.90;1.27;;;;;;;;;;5095503;28;20174;-84
2022/09/27 03:30:07;;;;;;;6.27;1.50;;;;;;;;;;5084178;28;20183;-82
2022/09/27 03:32:33;;;;;;;6.23;1.70;;;;;;;;;;5075653;28;20183;-82
2022/09/27 03:34:59;;;;;;;6.97;1.80;;;;;;;;;;5070152;28;20197;-83
2022/09/27 03:37:28;;;;;;;9.87;2.43;;;;;;;;;;5058026;28;20188;-84
2022/09/27 03:39:54;;;;;;;7.60;2.53;;;;;;;;;;5058766;28;20281;-84
2022/09/27 03:42:20;;;;;;;7.23;2.50;;;;;;;;;;5095673;28;20228;-84
2022/09/27 03:44:46;;;;;;;6.77;2.40;;;;;;;;;;5067784;28;20180;-84
2022/09/27 03:47:12;;;;;;;5.77;2.00;;;;;;;;;;5086613;28;20182;-84
2022/09/27 03:49:38;;;;;;;8.30;2.07;;;;;;;;;;5088658;28;20183;-84
2022/09/27 03:52:04;;;;;;;9.07;2.30;;;;;;;;;;5048636;28;20183;-84
2022/09/27 03:54:31;;;;;;;8.77;2.37;;;;;;;;;;5049021;28;20194;-84
2022/09/27 03:56:57;;;;;;;4.13;1.87;;;;;;;;;;5061975;28;20184;-84
2022/09/27 03:59:23;;;;;;;9.37;2.10;;;;;;;;;;5048440;28;20179;-84
2022/09/27 04:01:49;;;;;;;8.10;2.20;;;;;;;;;;5075157;28;20333;-83
2022/09/27 04:04:15;;;;;;;5.60;2.07;;;;;;;;;;5076717;28;20270;-84
2022/09/27 04:06:41;;;;;;;14.63;2.27;;;;;;;;;;5094735;28;20174;-84
2022/09/27 04:09:07;;;;;;;7.13;1.90;;;;;;;;;;5094979;28;20229;-84
2022/09/27 04:11:33;;;;;;;10.87;2.20;;;;;;;;;;5055263;28;20184;-84
2022/09/27 04:14:00;;;;;;;8.77;2.30;;;;;;;;;;5054906;28;20180;-84
2022/09/27 04:16:26;;;;;;;7.43;2.13;;;;;;;;;;5082999;28;20179;-84
2022/09/27 04:18:52;;;;;;;9.20;2.23;;;;;;;;;;5058405;28;20187;-84
2022/09/27 04:21:19;;;;;;;9.43;2.67;;;;;;;;;;5064493;28;20211;-84
2022/09/27 04:23:45;;;;;;;8.57;1.97;;;;;;;;;;5054944;28;20184;-84
2022/09/27 04:26:12;;;;;;;11.53;2.00;;;;;;;;;;5062210;28;20251;-84
2022/09/27 04:28:39;;;;;;;14.07;2.57;;;;;;;;;;5056751;28;20184;-84
2022/09/27 04:31:05;;;;;;;7.63;2.37;;;;;;;;;;5076176;28;20183;-84
2022/09/27 04:33:31;;;;;;;9.00;2.67;;;;;;;;;;5054627;28;20179;-84
2022/09/27 04:38:41;;;;;;;8.70;2.40;;;;;;;;;;5075873;28;20187;-84
2022/09/27 04:41:08;;;;;;;8.90;2.40;;;;;;;;;;5069703;28;20210;-84
2022/09/27 04:43:34;;;;;;;7.57;2.40;;;;;;;;;;5094698;28;20200;-84
2022/09/27 04:46:00;;;;;;;11.30;2.50;;;;;;;;;;5093748;28;20177;-83
2022/09/27 04:48:28;;;;;;;8.03;2.43;;;;;;;;;;5057286;28;20185;-84
2022/09/27 04:50:58;;;;;;;11.07;2.83;;;;;;;;;;5055110;28;20212;-83
2022/09/27 04:53:25;;;;;;;12.20;2.90;;;;;;;;;;5073443;28;20198;-84
2022/09/27 04:55:52;;;;;;;12.30;3.00;;;;;;;;;;5076492;28;20232;-83
2022/09/27 04:58:18;;;;;;;8.83;2.63;;;;;;;;;;5074017;28;20179;-84
2022/09/27 05:00:47;;;;;;;10.83;2.90;;;;;;;;;;5075928;28;20305;-83
2022/09/27 05:03:13;;;;;;;11.73;3.07;;;;;;;;;;5055254;28;20186;-83
2022/09/27 05:05:42;;;;;;;14.23;3.13;;;;;;;;;;5075743;28;20206;-84
2022/09/27 05:08:09;;;;;;;11.40;2.90;;;;;;;;;;5056817;28;20179;-84
2022/09/27 05:10:38;;;;;;;10.63;3.10;;;;;;;;;;5073619;28;20207;-84
2022/09/27 05:13:04;;;;;;;9.17;2.70;;;;;;;;;;5056197;28;20191;-84
2022/09/27 05:15:30;;;;;;;12.80;3.47;;;;;;;;;;5059138;28;20183;-83
2022/09/27 05:17:57;;;;;;;11.73;3.23;;;;;;;;;;5073641;28;20179;-84
2022/09/27 05:20:24;;;;;;;10.23;3.13;;;;;;;;;;5073119;28;20270;-82
2022/09/27 05:22:50;;;;;;;14.00;3.37;;;;;;;;;;5074505;28;20167;-83
2022/09/27 05:25:16;;;;;;;13.80;3.17;;;;;;;;;;5074308;28;20221;-84
2022/09/27 05:27:42;;;;;;;10.73;2.63;;;;;;;;;;5073382;28;20178;-83
2022/09/27 05:30:08;;;;;;;14.63;2.90;;;;;;;;;;5077521;28;20187;-83
2022/09/27 05:32:35;;;;;;;10.67;2.60;;;;;;;;;;5056727;28;20183;-83
2022/09/27 05:35:01;;;;;;;10.40;2.83;;;;;;;;;;5062298;28;20186;-83
2022/09/27 05:37:28;;;;;;;10.20;2.40;;;;;;;;;;5077319;28;20179;-83
2022/09/27 05:39:54;;;;;;;9.43;2.30;;;;;;;;;;5093934;28;20182;-83
2022/09/27 05:42:21;;;;;;;8.67;1.97;;;;;;;;;;5093594;28;20275;-83
2022/09/27 05:44:47;;;;;;;9.03;2.27;;;;;;;;;;5077440;28;20179;-86
2022/09/27 05:47:14;;;;;;;7.57;2.00;;;;;;;;;;5077279;28;20295;-84
2022/09/27 05:49:40;;;;;;;10.33;2.07;;;;;;;;;;5087086;28;20201;-84
2022/09/27 05:52:07;;;;;;;9.17;2.10;;;;;;;;;;5073326;28;20186;-83
2022/09/27 05:54:33;;;;;;;9.27;1.83;;;;;;;;;;5073467;28;20182;-84
2022/09/27 05:56:59;;;;;;;5.57;1.90;;;;;;;;;;5057458;28;20225;-83
2022/09/27 05:59:26;;;;;;;9.27;2.03;;;;;;;;;;5072848;28;20194;-82
2022/09/27 06:01:52;;;;;;;7.10;2.37;;;;;;;;;;5065192;28;20214;-83
2022/09/27 06:04:18;;;;;;;10.10;2.50;;;;;;;;;;5073328;28;20175;-83
2022/09/27 06:06:45;;;;;;;7.50;2.23;;;;;;;;;;5056011;28;20183;-83
2022/09/27 06:09:11;;;;;;;7.20;2.20;;;;;;;;;;5072771;28;20231;-83
2022/09/27 06:11:37;;;;;;;6.37;2.47;;;;;;;;;;5052957;28;20191;-83
2022/09/27 06:14:03;;;;;;;9.73;2.37;;;;;;;;;;5054235;28;20180;-84
2022/09/27 06:16:29;;;;;;;5.57;2.20;;;;;;;;;;5068918;28;20270;-84
2022/09/27 06:18:56;;;;;;;6.03;1.83;;;;;;;;;;5073934;28;20222;-84
2022/09/27 06:21:23;;;;;;;8.00;1.93;;;;;;;;;;5072638;28;20213;-84
2022/09/27 06:23:49;;;;;;;5.43;1.93;;;;;;;;;;5094241;22;20232;-83
2022/09/27 06:26:16;;;;;;;4.73;1.47;;;;;;;;;;5095156;28;20197;-83
2022/09/27 06:28:42;;;;;;;6.13;1.87;;;;;;;;;;5094796;28;20174;-83
2022/09/27 06:31:10;;;;;;;7.60;1.80;;;;;;;;;;5094842;28;20182;-84
2022/09/27 06:33:36;;;;;;;4.63;1.90;;;;;;;;;;5097762;28;20181;-86
2022/09/27 06:36:03;;;;;;;5.53;1.70;;;;;;;;;;5089674;28;20178;-87
2022/09/27 06:38:29;;;;;;;6.43;2.10;;;;;;;;;;5102257;28;20192;-79
2022/09/27 06:40:57;;;;;;;7.30;2.17;;;;;;;;;;5079399;28;20202;-79
2022/09/27 06:43:24;;;;;;;8.27;2.10;;;;;;;;;;5096150;28;20170;-81
2022/09/27 06:45:50;;;;;;;5.13;1.53;;;;;;;;;;5076730;28;20186;-82
2022/09/27 06:48:16;;;;;;;4.13;1.90;;;;;;;;;;5059765;28;20218;-83
2022/09/27 06:50:43;;;;;;;3.87;1.97;;;;;;;;;;5104485;28;20269;-81
2022/09/27 06:53:10;;;;;;;5.57;1.50;;;;;;;;;;5094455;28;20185;-81
2022/09/27 06:55:37;;;;;;;5.60;1.60;;;;;;;;;;5095532;28;20188;-81
2022/09/27 07:00:52;;;;;;;4.40;2.00;;;;;;;;;;5113771;28;20318;-81
2022/09/27 07:03:22;;;;;;;3.23;1.70;;;;;;;;;;5096152;28;20224;-81
2022/09/27 07:05:55;;;;;;;4.93;2.23;;;;;;;;;;5095671;28;20182;-81
2022/09/27 07:08:22;;;;;;;3.70;1.43;;;;;;;;;;5094332;28;20186;-86
2022/09/27 07:10:49;;;;;;;4.20;1.90;;;;;;;;;;5096212;28;20167;-86
2022/09/27 07:13:15;;;;;;;6.47;1.90;;;;;;;;;;5095984;28;20192;-86
2022/09/27 07:15:41;;;;;;;5.87;1.87;;;;;;;;;;5079296;28;20178;-86
2022/09/27 07:18:07;;;;;;;5.03;1.90;;;;;;;;;;5079549;28;20190;-86
2022/09/27 07:20:37;;;;;;;4.23;2.00;;;;;;;;;;5062515;28;20343;-85
2022/09/27 07:23:07;;;;;;;7.03;2.13;;;;;;;;;;5097173;28;20171;-85
2022/09/27 07:25:33;;;;;;;3.73;1.70;;;;;;;;;;5092590;28;20228;-85
2022/09/27 07:28:04;;;;;;;5.37;1.80;;;;;;;;;;5078058;28;20198;-85
2022/09/27 07:30:30;;;;;;;5.27;1.87;;;;;;;;;;5111400;28;20239;-85
2022/09/27 07:32:57;;;;;;;5.40;1.73;;;;;;;;;;5099762;28;20184;-85
2022/09/27 07:35:24;;;;;;;4.83;1.90;;;;;;;;;;5099837;28;20182;-85
2022/09/27 07:37:51;;;;;;;5.67;2.10;;;;;;;;;;5117653;28;20201;-85
2022/09/27 07:40:17;;;;;;;3.17;1.90;;;;;;;;;;5083460;28;20196;-82
2022/09/27 07:42:43;;;;;;;3.37;2.00;;;;;;;;;;5099423;28;20170;-81
2022/09/27 07:45:10;;;;;;;2.73;1.90;;;;;;;;;;5099579;28;20184;-81
2022/09/27 07:47:37;;;;;;;5.33;2.17;;;;;;;;;;5117446;28;20223;-82
2022/09/27 07:50:04;;;;;;;5.77;2.13;;;;;;;;;;5099338;28;20230;-84
2022/09/27 07:52:30;;;;;;;5.60;2.00;;;;;;;;;;5099423;28;20193;-84
2022/09/27 07:54:57;;;;;;;4.77;2.00;;;;;;;;;;5099136;28;20178;-84
2022/09/27 07:57:23;;;;;;;4.97;2.30;;;;;;;;;;5099585;28;20170;-82
2022/09/27 07:59:49;;;;;;;4.80;2.20;;;;;;;;;;5078911;28;20189;-82
2022/09/27 08:02:16;;;;;;;5.63;2.10;;;;;;;;;;5062218;28;20210;-81
2022/09/27 08:04:43;;;;;;;4.17;1.90;;;;;;;;;;5116447;28;20184;-84
2022/09/27 08:07:12;;;;;;;4.17;1.63;;;;;;;;;;5098036;28;20230;-83
2022/09/27 08:09:38;;;;;;;4.67;1.97;;;;;;;;;;5098738;28;20211;-83
2022/09/27 08:12:04;;;;;;;3.20;2.00;;;;;;;;;;5081855;28;20186;-85
2022/09/27 08:14:30;;;;;;;5.00;2.00;;;;;;;;;;5099272;28;20247;-81
2022/09/27 08:16:56;;;;;;;3.47;1.63;;;;;;;;;;5098731;28;20198;-82
2022/09/27 08:19:23;;;;;;;4.70;1.50;;;;;;;;;;5098752;28;20208;-85
2022/09/27 08:21:51;;;;;;;4.03;1.50;;;;;;;;;;5098103;28;20243;-86
2022/09/27 08:24:17;;;;;;;2.67;1.57;;;;;;;;;;5098424;28;20218;-82
2022/09/27 08:26:43;;;;;;;3.80;1.60;;;;;;;;;;5078103;28;20190;-82
2022/09/27 08:29:09;;;;;;;5.17;1.70;;;;;;;;;;5061262;28;20178;-82
2022/09/27 08:31:35;;;;;;;3.77;1.33;;;;;;;;;;5093028;28;20212;-85
2022/09/27 08:34:01;;;;;;;5.77;1.37;;;;;;;;;;5081080;28;20193;-85
2022/09/27 08:36:28;;;;;;;4.83;1.67;;;;;;;;;;5097319;28;20240;-85
2022/09/27 08:38:57;;;;;;;6.17;2.03;;;;;;;;;;5082138;28;20185;-85
2022/09/27 08:41:23;;;;;;;5.60;1.77;;;;;;;;;;5098059;28;20280;-85
2022/09/27 08:43:59;;;;;;;3.57;2.00;;;;;;;;;;5098744;28;20212;-85
2022/09/27 08:46:44;;;;;;;3.40;1.80;;;;;;;;;;5098435;28;20170;-87
2022/09/27 08:49:14;;;;;;;6.60;2.20;;;;;;;;;;5098784;28;20215;-89
2022/09/27 08:51:40;;;;;;;6.93;2.57;;;;;;;;;;5098430;28;20216;-88
2022/09/27 08:54:10;;;;;;;3.47;2.10;;;;;;;;;;5097965;28;20180;-81
2022/09/27 08:56:37;;;;;;;5.77;2.43;;;;;;;;;;5098149;28;20182;-82
2022/09/27 08:59:13;;;;;;;6.07;2.30;;;;;;;;;;5098229;28;20263;-81
2022/09/27 09:01:40;;;;;;;4.43;2.40;;;;;;;;;;5098030;28;20258;-82
2022/09/27 09:04:06;;;;;;;7.80;2.70;;;;;;;;;;5081331;28;20178;-85
2022/09/27 09:06:33;;;;;;;4.43;2.30;;;;;;;;;;5098193;28;20234;-85
2022/09/27 09:09:05;;;;;;;7.43;3.03;;;;;;;;;;5116039;28;20177;-85
2022/09/27 09:14:32;;;;;;;6.33;3.47;;;;;;;;;;5115769;28;20207;-85
2022/09/27 09:17:08;;;;;;;4.93;3.30;;;;;;;;;;5115694;28;20177;-85
2022/09/27 09:19:43;;;;;;;6.37;3.80;;;;;;;;;;5115619;28;20200;-85
2022/09/27 09:22:18;;;;;;;6.63;3.67;;;;;;;;;;5115626;28;20201;-88
2022/09/27 09:24:50;;;;;;;5.80;3.67;;;;;;;;;;5097569;28;20232;-88
2022/09/27 09:27:45;;;;;;;3.90;2.93;;;;;;;;;;5097587;28;20185;-88
2022/09/27 09:30:11;;;;;;;4.40;3.10;;;;;;;;;;5080229;28;20194;-87
2022/09/27 09:32:48;;;;;;;3.90;2.93;;;;;;;;;;5097938;28;20196;-90
2022/09/27 09:35:20;;;;;;;1.83;1.63;;;;;;;;;;5097328;28;20178;-88
2022/09/27 09:37:52;;;;;;;3.80;1.33;;;;;;;;;;5097497;28;20276;-84
2022/09/27 09:40:21;;;;;;;2.77;1.50;;;;;;;;;;5097117;28;20173;-85
2022/09/27 09:43:10;;;;;;;3.40;1.70;;;;;;;;;;5097061;28;20209;-83
2022/09/27 09:45:40;;;;;;;3.93;1.90;;;;;;;;;;5114715;28;20185;-84
2022/09/27 09:48:18;;;;;;;2.60;1.90;;;;;;;;;;5097086;28;20181;-84
2022/09/27 09:50:50;;;;;;;3.27;2.20;;;;;;;;;;5097058;28;20182;-84
2022/09/27 09:53:18;;;;;;;5.33;2.60;;;;;;;;;;5097045;28;20268;-84
2022/09/27 09:55:48;;;;;;;4.33;3.00;;;;;;;;;;5096836;28;20181;-85
2022/09/27 09:58:29;;;;;;;6.73;2.80;;;;;;;;;;5097075;28;20181;-85
2022/09/27 10:00:59;;;;;;;4.87;2.70;;;;;;;;;;5096583;28;20213;-86
2022/09/27 10:03:25;;;;;;;6.07;2.83;;;;;;;;;;5097090;28;20200;-86
2022/09/27 10:05:51;;;;;;;4.33;3.00;;;;;;;;;;5114781;28;20193;-85
2022/09/27 10:08:19;;;;;;;4.83;2.77;;;;;;;;;;5114896;28;20169;-83
2022/09/27 10:10:45;;;;;;;4.63;2.63;;;;;;;;;;5114947;28;20182;-84
2022/09/27 10:13:15;;;;;;;6.63;2.50;;;;;;;;;;5096349;28;20178;-83
2022/09/27 10:15:41;;;;;;;3.90;2.17;;;;;;;;;;5114263;28;20261;-84
2022/09/27 10:18:11;;;;;;;3.73;2.10;;;;;;;;;;5095965;28;20186;-83
2022/09/27 10:20:49;;;;;;;5.27;1.73;;;;;;;;;;5096252;28;20177;-84
2022/09/27 10:23:20;;;;;;;2.97;1.30;;;;;;;;;;5114195;28;20166;-84
2022/09/27 10:25:57;;;;;;;4.10;1.40;;;;;;;;;;5095885;28;20176;-84
2022/09/27 10:28:27;;;;;;;3.27;1.40;;;;;;;;;;5096098;28;20177;-85
2022/09/27 10:30:56;;;;;;;3.60;1.33;;;;;;;;;;5075833;28;20206;-85
2022/09/27 10:33:22;;;;;;;3.83;1.50;;;;;;;;;;5080377;28;20182;-85
2022/09/27 10:35:49;;;;;;;5.33;1.63;;;;;;;;;;5096078;28;20181;-85
2022/09/27 10:38:21;;;;;;;3.57;1.40;;;;;;;;;;5096332;28;20177;-85
2022/09/27 10:40:52;;;;;;;4.63;1.40;;;;;;;;;;5095524;28;20231;-85
2022/09/27 10:43:27;;;;;;;4.97;1.70;;;;;;;;;;5096009;28;20178;-85
2022/09/27 10:46:08;;;;;;;4.07;1.30;;;;;;;;;;5113811;28;20289;-85
2022/09/27 10:48:36;;;;;;;4.60;1.37;;;;;;;;;;5095990;28;20174;-85
2022/09/27 10:51:04;;;;;;;2.70;1.30;;;;;;;;;;5096381;28;20192;-85
2022/09/27 10:53:30;;;;;;;2.13;1.13;;;;;;;;;;5099966;28;20169;-82
2022/09/27 10:55:57;;;;;;;3.80;1.50;;;;;;;;;;5099846;28;20178;-81
2022/09/27 10:58:27;;;;;;;3.40;1.50;;;;;;;;;;5099920;28;20181;-81
2022/09/27 11:00:56;;;;;;;4.17;1.30;;;;;;;;;;5117522;28;20220;-89
2022/09/27 11:03:24;;;;;;;4.70;1.30;;;;;;;;;;5100339;28;20170;-87
2022/09/27 11:05:53;;;;;;;4.13;1.40;;;;;;;;;;5083529;28;20178;-85
2022/09/27 11:08:22;;;;;;;3.23;1.10;;;;;;;;;;5099899;28;20178;-86
2022/09/27 11:11:07;;;;;;;3.50;1.20;;;;;;;;;;5099578;28;20213;-87
2022/09/27 11:13:34;;;;;;;2.07;1.20;;;;;;;;;;5099819;28;20193;-86
2022/09/27 11:16:16;;;;;;;3.27;1.30;;;;;;;;;;5099342;28;20182;-86
2022/09/27 11:19:05;;;;;;;2.73;1.20;;;;;;;;;;5099585;28;20196;-89
2022/09/27 11:21:40;;;;;;;4.03;1.43;;;;;;;;;;5097111;28;20216;-89
2022/09/27 11:24:15;;;;;;;4.80;1.30;;;;;;;;;;5100324;28;20225;-88
2022/09/27 11:27:07;;;;;;;3.60;1.07;;;;;;;;;;5100468;28;20181;-87
2022/09/27 11:29:45;;;;;;;2.10;1.00;;;;;;;;;;5100069;28;20177;-87
2022/09/27 11:32:36;;;;;;;3.13;1.10;;;;;;;;;;5099540;28;20252;-88
2022/09/27 11:35:05;;;;;;;2.77;1.17;;;;;;;;;;5099538;28;20174;-88
2022/09/27 11:37:44;;;;;;;3.67;1.20;;;;;;;;;;5099382;28;20186;-88
2022/09/27 11:40:25;;;;;;;4.00;1.27;;;;;;;;;;5099289;28;20242;-88
2022/09/27 11:42:54;;;;;;;3.20;1.33;;;;;;;;;;5085114;28;20244;-88
2022/09/27 11:45:26;;;;;;;1.93;1.07;;;;;;;;;;5099064;28;20228;-89
2022/09/27 11:48:17;;;;;;;3.07;1.20;;;;;;;;;;5078806;28;20186;-89
2022/09/27 11:50:49;;;;;;;5.23;1.37;;;;;;;;;;5080589;28;20310;-86
2022/09/27 11:53:21;;;;;;;4.00;1.30;;;;;;;;;;5079016;28;20277;-86
2022/09/27 11:55:54;;;;;;;3.13;1.50;;;;;;;;;;5110094;28;20178;-87
2022/09/27 11:58:39;;;;;;;2.37;1.20;;;;;;;;;;5098624;28;20178;-86
2022/09/27 12:01:05;;;;;;;1.97;1.00;;;;;;;;;;5098746;28;20206;-86
2022/09/27 12:03:34;;;;;;;3.50;1.00;;;;;;;;;;5097444;28;20184;-86
2022/09/27 12:06:06;;;;;;;2.47;1.00;;;;;;;;;;5098486;28;20177;-86
2022/09/27 12:08:38;;;;;;;2.57;0.80;;;;;;;;;;5102716;28;20193;-89
2022/09/27 12:11:19;;;;;;;2.37;0.77;;;;;;;;;;5096323;28;20181;-90
2022/09/27 12:13:48;;;;;;;1.53;0.90;;;;;;;;;;5096594;28;20188;-89
2022/09/27 12:16:15;;;;;;;2.47;1.00;;;;;;;;;;5097581;28;20182;-88
2022/09/27 12:18:42;;;;;;;2.50;0.90;;;;;;;;;;5097301;28;20246;-88
2022/09/27 12:21:09;;;;;;;2.03;1.00;;;;;;;;;;5080452;28;20209;-88
2022/09/27 12:23:44;;;;;;;1.87;0.70;;;;;;;;;;5097238;28;20220;-84
2022/09/27 12:26:49;;;;;;;2.60;0.90;;;;;;;;;;5097485;28;20184;-84
2022/09/27 12:29:21;;;;;;;2.83;1.10;;;;;;;;;;5017298;28;20184;-82
2022/09/27 12:32:04;;;;;;;1.87;0.90;;;;;;;;;;5018596;28;20215;-82
2022/09/27 12:34:45;;;;;;;1.33;1.00;;;;;;;;;;5080327;28;20190;-82
2022/09/27 12:37:18;;;;;;;2.00;0.97;;;;;;;;;;5095979;28;20202;-81
2022/09/27 12:39:48;;;;;;;2.63;1.10;;;;;;;;;;5104186;28;20187;-86
2022/09/27 12:42:17;;;;;;;2.05;0.90;;;;;;;;;;5095342;28;20750;-86
2022/09/27 12:44:43;;;;;;;1.53;0.90;;;;;;;;;;5114295;28;20177;-86
2022/09/27 12:47:15;;;;;;;1.57;1.00;;;;;;;;;;5074880;28;20532;-86
2022/09/27 12:49:48;;;;;;;1.53;0.90;;;;;;;;;;5093058;28;20189;-86
2022/09/27 12:52:22;;;;;;;2.73;0.80;;;;;;;;;;5086453;28;20189;-86
2022/09/27 12:55:15;;;;;;;1.30;0.70;;;;;;;;;;5082466;28;20207;-85
2022/09/27 12:57:49;;;;;;;1.13;0.77;;;;;;;;;;5061940;28;20283;-85
2022/09/27 13:00:20;;;;;;;0.97;0.70;;;;;;;;;;5077439;28;20177;-84
2022/09/27 13:03:06;;;;;;;1.70;0.90;;;;;;;;;;5095315;28;20229;-84
2022/09/27 13:05:50;;;;;;;0.87;0.77;;;;;;;;;;5077729;28;20186;-85
2022/09/27 13:08:35;;;;;;;1.83;1.00;;;;;;;;;;5110719;28;20181;-84
2022/09/27 13:11:20;;;;;;;1.37;0.97;;;;;;;;;;5115656;28;20227;-85
2022/09/27 13:13:47;;;;;;;1.23;0.80;;;;;;;;;;5097518;28;20201;-89
2022/09/27 13:16:13;;;;;;;1.30;1.00;;;;;;;;;;5097877;28;20178;-89
2022/09/27 13:18:50;;;;;;;1.07;0.87;;;;;;;;;;5081089;28;20180;-89
2022/09/27 13:21:35;;;;;;;2.20;0.90;;;;;;;;;;5097443;28;20202;-91
2022/09/27 13:24:02;;;;;;;1.57;1.10;;;;;;;;;;5093428;28;20230;-88
2022/09/27 13:26:34;;;;;;;3.03;0.93;;;;;;;;;;5065733;28;20175;-88
2022/09/27 13:29:02;;;;;;;1.80;0.90;;;;;;;;;;5074937;28;20206;-88
2022/09/27 13:31:47;;;;;;;1.13;0.70;;;;;;;;;;5078877;28;20183;-86
2022/09/27 13:34:33;;;;;;;1.27;0.87;;;;;;;;;;5093972;28;20269;-85
2022/09/27 13:37:19;;;;;;;2.10;1.10;;;;;;;;;;5084241;28;20251;-86
2022/09/27 13:39:45;;;;;;;3.27;1.20;;;;;;;;;;5093868;28;20171;-85
2022/09/27 13:42:20;;;;;;;3.53;1.03;;;;;;;;;;5073565;28;20237;-85
2022/09/27 13:44:50;;;;;;;2.13;1.10;;;;;;;;;;5073549;28;20224;-81
2022/09/27 13:47:26;;;;;;;3.00;1.03;;;;;;;;;;5074720;28;20210;-81
2022/09/27 13:49:59;;;;;;;3.03;1.20;;;;;;;;;;5073322;28;20171;-81
2022/09/27 13:52:32;;;;;;;2.40;1.00;;;;;;;;;;5077303;28;20263;-82
2022/09/27 13:54:59;;;;;;;2.80;1.10;;;;;;;;;;5095081;28;20174;-81
2022/09/27 13:57:41;;;;;;;2.00;0.90;;;;;;;;;;5093558;28;20178;-81
2022/09/27 14:00:12;;;;;;;3.53;1.30;;;;;;;;;;5093674;28;20186;-82
2022/09/27 14:02:51;;;;;;;3.30;1.00;;;;;;;;;;5093387;28;20217;-82
2022/09/27 14:05:19;;;;;;;2.37;1.10;;;;;;;;;;5093793;28;20174;-85
2022/09/27 14:07:46;;;;;;;5.27;1.30;;;;;;;;;;5093319;28;20171;-84
2022/09/27 14:10:15;;;;;;;2.57;1.27;;;;;;;;;;5093611;28;20217;-85
2022/09/27 14:12:41;;;;;;;1.90;1.03;;;;;;;;;;5093313;28;20227;-86
2022/09/27 14:15:08;;;;;;;3.07;1.60;;;;;;;;;;5073045;28;20187;-85
2022/09/27 14:17:34;;;;;;;1.80;1.20;;;;;;;;;;5091445;28;20186;-83
2022/09/27 14:20:02;;;;;;;2.40;1.80;;;;;;;;;;5094373;28;20171;-89
2022/09/27 14:22:28;;;;;;;2.30;1.30;;;;;;;;;;5092984;28;20194;-89
2022/09/27 14:24:55;;;;;;;3.47;1.10;;;;;;;;;;5092516;28;20230;-85
2022/09/27 14:27:21;;;;;;;2.63;1.10;;;;;;;;;;5092190;28;20167;-85
2022/09/27 14:29:47;;;;;;;2.37;1.37;;;;;;;;;;5092233;28;20180;-85
2022/09/27 14:32:17;;;;;;;2.87;1.30;;;;;;;;;;5093308;28;20193;-85
2022/09/27 14:34:44;;;;;;;2.40;1.30;;;;;;;;;;5093597;28;20184;-85
2022/09/27 14:37:25;;;;;;;9.30;8.53;;;;;;;;;;5092811;28;20192;-85
2022/09/27 14:39:57;;;;;;;2.47;1.30;;;;;;;;;;5092764;28;20212;-84
2022/09/27 14:42:25;;;;;;;3.07;1.30;;;;;;;;;;5092972;28;20206;-84
2022/09/27 14:44:52;;;;;;;1.83;0.90;;;;;;;;;;5093222;28;20185;-84
2022/09/27 14:47:26;;;;;;;2.33;0.90;;;;;;;;;;5093206;28;20175;-84
2022/09/27 14:49:56;;;;;;;2.83;1.10;;;;;;;;;;5094063;28;20174;-84
2022/09/27 14:52:28;;;;;;;1.40;1.00;;;;;;;;;;5092996;28;20205;-84
2022/09/27 14:55:15;;;;;;;3.00;1.50;;;;;;;;;;5093140;28;20182;-82
2022/09/27 14:57:46;;;;;;;3.00;1.40;;;;;;;;;;5092601;28;20232;-82
2022/09/27 15:00:20;;;;;;;2.23;1.30;;;;;;;;;;5092972;28;20213;-81
2022/09/27 15:02:47;;;;;;;3.30;1.20;;;;;;;;;;5092876;28;20303;-82
2022/09/27 15:05:14;;;;;;;2.53;1.30;;;;;;;;;;5092921;28;20179;-81
2022/09/27 15:07:41;;;;;;;3.30;2.23;;;;;;;;;;5092457;28;20185;-82